sensor_id;sensor_type;location;lat;lon;timestamp;pressure;altitude;pressure_sealevel;temperature;humidity
65534;BME280;53640;55.838;37.184;2023-04-06T00:00:55;99712.84;;;3.01;55.18
65534;BME280;53640;55.838;37.184;2023-04-06T00:07:35;99749.06;;;3.21;55.67
65534;BME280;53640;55.838;37.184;2023-04-06T00:10:19;99717.84;;;2.96;55.47
65534;BME280;53640;55.838;37.184;2023-04-06T00:12:54;99787.88;;;3.25;55.78
65534;BME280;53640;55.838;37.184;2023-04-06T00:15:59;99787.63;;;3.11;56.31
65534;BME280;53640;55.838;37.184;2023-04-06T00:22:08;99727.38;;;2.64;56.79
65534;BME280;53640;55.838;37.184;2023-04-06T00:24:43;99760.50;;;2.71;57.12
65534;BME280;53640;55.838;37.184;2023-04-06T00:27:13;99819.50;;;3.04;56.98
65534;BME280;53640;55.838;37.184;2023-04-06T00:30:08;99723.16;;;2.36;56.73
65534;BME280;53640;55.838;37.184;2023-04-06T00:32:44;99796.44;;;2.77;57.29
65534;BME280;53640;55.838;37.184;2023-04-06T00:35:16;99824.16;;;2.94;57.12
65534;BME280;53640;55.838;37.184;2023-04-06T00:37:46;99715.63;;;2.31;57.20
65534;BME280;53640;55.838;37.184;2023-04-06T00:40:14;99827.72;;;3.02;57.18
65534;BME280;53640;55.838;37.184;2023-04-06T00:42:45;99841.75;;;3.04;57.45
65534;BME280;53640;55.838;37.184;2023-04-06T00:45:14;99816.81;;;2.78;57.42
65534;BME280;53640;55.838;37.184;2023-04-06T00:47:40;99758.13;;;2.42;57.17
65534;BME280;53640;55.838;37.184;2023-04-06T00:50:08;99733.50;;;2.30;57.38
65534;BME280;53640;55.838;37.184;2023-04-06T00:52:35;99892.69;;;3.21;57.08
65534;BME280;53640;55.838;37.184;2023-04-06T00:55:03;99735.84;;;2.34;57.21
65534;BME280;53640;55.838;37.184;2023-04-06T00:57:31;99765.84;;;2.45;57.06
65534;BME280;53640;55.838;37.184;2023-04-06T00:59:58;99734.31;;;2.31;57.03
65534;BME280;53640;55.838;37.184;2023-04-06T01:02:27;99750.41;;;2.39;56.66
65534;BME280;53640;55.838;37.184;2023-04-06T01:04:57;99768.09;;;2.58;56.81
65534;BME280;53640;55.838;37.184;2023-04-06T01:07:35;99710.22;;;2.23;56.62
65534;BME280;53640;55.838;37.184;2023-04-06T01:10:28;99802.53;;;2.87;56.47
65534;BME280;53640;55.838;37.184;2023-04-06T01:13:11;99764.78;;;2.64;56.62
65534;BME280;53640;55.838;37.184;2023-04-06T01:15:49;99810.91;;;2.92;56.50
65534;BME280;53640;55.838;37.184;2023-04-06T01:18:28;99776.84;;;2.68;56.59
65534;BME280;53640;55.838;37.184;2023-04-06T01:21:14;99781.56;;;2.74;56.53
65534;BME280;53640;55.838;37.184;2023-04-06T01:24:02;99734.59;;;2.46;56.49
65534;BME280;53640;55.838;37.184;2023-04-06T01:26:38;99699.38;;;2.24;56.42
65534;BME280;53640;55.838;37.184;2023-04-06T01:29:08;99757.69;;;2.55;56.18
65534;BME280;53640;55.838;37.184;2023-04-06T01:31:38;99801.97;;;2.75;56.44
65534;BME280;53640;55.838;37.184;2023-04-06T01:34:10;99701.69;;;2.19;56.48
65534;BME280;53640;55.838;37.184;2023-04-06T01:36:37;99821.47;;;2.94;56.54
65534;BME280;53640;55.838;37.184;2023-04-06T01:39:19;99861.06;;;3.16;55.94
65534;BME280;53640;55.838;37.184;2023-04-06T01:41:48;99759.78;;;2.43;56.16
65534;BME280;53640;55.838;37.184;2023-04-06T01:44:17;99824.53;;;2.81;56.25
65534;BME280;53640;55.838;37.184;2023-04-06T01:46:49;99718.44;;;2.29;56.03
65534;BME280;53640;55.838;37.184;2023-04-06T01:49:19;99789.63;;;2.57;56.20
65534;BME280;53640;55.838;37.184;2023-04-06T01:51:51;99742.94;;;2.25;56.16
65534;BME280;53640;55.838;37.184;2023-04-06T01:54:19;99772.78;;;2.38;56.39
65534;BME280;53640;55.838;37.184;2023-04-06T01:57:03;99861.94;;;2.99;56.28
65534;BME280;53640;55.838;37.184;2023-04-06T01:59:40;99728.47;;;2.10;56.37
65534;BME280;53640;55.838;37.184;2023-04-06T02:02:15;99677.31;;;1.78;56.25
65534;BME280;53640;55.838;37.184;2023-04-06T02:04:51;99742.22;;;2.15;56.28
65534;BME280;53640;55.838;37.184;2023-04-06T02:07:22;99782.47;;;2.39;56.26
65534;BME280;53640;55.838;37.184;2023-04-06T02:09:54;99760.69;;;2.26;56.41
65534;BME280;53640;55.838;37.184;2023-04-06T02:12:29;99780.28;;;2.35;56.21
65534;BME280;53640;55.838;37.184;2023-04-06T02:14:56;99739.06;;;2.19;56.36
65534;BME280;53640;55.838;37.184;2023-04-06T02:17:31;99714.00;;;1.94;56.33
65534;BME280;53640;55.838;37.184;2023-04-06T02:19:58;99707.88;;;1.84;56.62
65534;BME280;53640;55.838;37.184;2023-04-06T02:22:24;99804.69;;;2.40;56.46
65534;BME280;53640;55.838;37.184;2023-04-06T02:24:51;99740.22;;;1.99;56.82
65534;BME280;53640;55.838;37.184;2023-04-06T02:27:17;99716.06;;;1.82;56.49
65534;BME280;53640;55.838;37.184;2023-04-06T02:29:46;99810.50;;;2.35;56.58
65534;BME280;53640;55.838;37.184;2023-04-06T02:32:15;99727.84;;;1.80;56.90
65534;BME280;53640;55.838;37.184;2023-04-06T02:34:45;99774.03;;;2.08;57.00
65534;BME280;53640;55.838;37.184;2023-04-06T02:37:15;99679.38;;;1.49;56.87
65534;BME280;53640;55.838;37.184;2023-04-06T02:39:45;99730.31;;;1.73;56.67
65534;BME280;53640;55.838;37.184;2023-04-06T02:42:21;99771.72;;;1.95;56.69
65534;BME280;53640;55.838;37.184;2023-04-06T02:44:53;99863.53;;;2.48;56.70
65534;BME280;53640;55.838;37.184;2023-04-06T02:47:22;99728.16;;;1.59;56.81
65534;BME280;53640;55.838;37.184;2023-04-06T02:49:51;99795.22;;;2.10;56.71
65534;BME280;53640;55.838;37.184;2023-04-06T02:52:28;99783.03;;;1.89;56.54
65534;BME280;53640;55.838;37.184;2023-04-06T02:54:56;99865.75;;;2.35;56.61
65534;BME280;53640;55.838;37.184;2023-04-06T02:57:32;99900.09;;;2.65;56.76
65534;BME280;53640;55.838;37.184;2023-04-06T03:00:03;99903.59;;;2.66;56.61
65534;BME280;53640;55.838;37.184;2023-04-06T03:02:40;99813.09;;;2.09;56.48
65534;BME280;53640;55.838;37.184;2023-04-06T03:05:10;99807.38;;;2.04;56.62
65534;BME280;53640;55.838;37.184;2023-04-06T03:07:46;99761.63;;;1.71;56.46
65534;BME280;53640;55.838;37.184;2023-04-06T03:10:32;99780.56;;;1.78;56.66
65534;BME280;53640;55.838;37.184;2023-04-06T03:12:58;99789.66;;;1.85;56.42
65534;BME280;53640;55.838;37.184;2023-04-06T03:15:47;99826.28;;;1.93;56.85
65534;BME280;53640;55.838;37.184;2023-04-06T03:18:26;99842.91;;;2.04;56.44
65534;BME280;53640;55.838;37.184;2023-04-06T03:20:58;99778.78;;;1.69;56.45
65534;BME280;53640;55.838;37.184;2023-04-06T03:23:45;99935.16;;;2.62;56.76
65534;BME280;53640;55.838;37.184;2023-04-06T03:26:36;99785.38;;;1.74;56.83
65534;BME280;53640;55.838;37.184;2023-04-06T03:29:06;99908.34;;;2.54;56.67
65534;BME280;53640;55.838;37.184;2023-04-06T03:31:35;99897.59;;;2.46;56.52
65534;BME280;53640;55.838;37.184;2023-04-06T03:34:16;99850.53;;;2.17;56.92
65534;BME280;53640;55.838;37.184;2023-04-06T03:37:28;99764.22;;;1.63;56.47
65534;BME280;53640;55.838;37.184;2023-04-06T03:40:37;99778.72;;;1.78;56.53
65534;BME280;53640;55.838;37.184;2023-04-06T03:48:00;99864.31;;;2.22;56.52
65534;BME280;53640;55.838;37.184;2023-04-06T03:54:00;99794.81;;;1.87;56.60
65534;BME280;53640;55.838;37.184;2023-04-06T03:57:34;99811.75;;;1.95;56.47
65534;BME280;53640;55.838;37.184;2023-04-06T04:00:14;99815.91;;;2.08;56.52
65534;BME280;53640;55.838;37.184;2023-04-06T04:03:14;99961.13;;;2.88;56.87
65534;BME280;53640;55.838;37.184;2023-04-06T04:06:09;99894.63;;;2.49;56.76
65534;BME280;53640;55.838;37.184;2023-04-06T04:09:06;99771.56;;;1.79;56.60
65534;BME280;53640;55.838;37.184;2023-04-06T04:12:12;99877.72;;;2.48;56.44
65534;BME280;53640;55.838;37.184;2023-04-06T04:15:02;99827.81;;;2.13;56.48
65534;BME280;53640;55.838;37.184;2023-04-06T04:22:38;99832.25;;;2.22;56.31
65534;BME280;53640;55.838;37.184;2023-04-06T04:28:47;99826.50;;;2.35;56.29
65534;BME280;53640;55.838;37.184;2023-04-06T04:31:36;99790.28;;;2.15;56.31
65534;BME280;53640;55.838;37.184;2023-04-06T04:34:16;99966.66;;;3.30;56.12
65534;BME280;53640;55.838;37.184;2023-04-06T04:36:46;99912.22;;;2.95;56.02
65534;BME280;53640;55.838;37.184;2023-04-06T04:39:21;99813.00;;;2.37;56.04
65534;BME280;53640;55.838;37.184;2023-04-06T04:42:00;99917.69;;;3.12;56.31
65534;BME280;53640;55.838;37.184;2023-04-06T04:44:34;99783.53;;;2.28;55.78
65534;BME280;53640;55.838;37.184;2023-04-06T04:47:04;99864.50;;;2.83;55.72
65534;BME280;53640;55.838;37.184;2023-04-06T04:49:45;99822.38;;;2.59;55.67
65534;BME280;53640;55.838;37.184;2023-04-06T04:52:21;99873.94;;;2.95;55.19
65534;BME280;53640;55.838;37.184;2023-04-06T04:54:56;99806.88;;;2.62;55.45
65534;BME280;53640;55.838;37.184;2023-04-06T04:57:30;99913.34;;;3.37;55.08
65534;BME280;53640;55.838;37.184;2023-04-06T05:00:00;99836.41;;;2.78;54.53
65534;BME280;53640;55.838;37.184;2023-04-06T05:02:29;99894.00;;;3.17;54.80
65534;BME280;53640;55.838;37.184;2023-04-06T05:05:10;99914.09;;;3.39;54.91
65534;BME280;53640;55.838;37.184;2023-04-06T05:07:38;99962.31;;;3.73;54.35
65534;BME280;53640;55.838;37.184;2023-04-06T05:10:10;99979.25;;;3.82;54.59
65534;BME280;53640;55.838;37.184;2023-04-06T05:12:46;99946.69;;;3.68;54.55
65534;BME280;53640;55.838;37.184;2023-04-06T05:15:13;99947.59;;;3.77;54.47
65534;BME280;53640;55.838;37.184;2023-04-06T05:17:41;99921.75;;;3.68;54.31
65534;BME280;53640;55.838;37.184;2023-04-06T05:20:15;99874.22;;;3.36;54.01
65534;BME280;53640;55.838;37.184;2023-04-06T05:28:14;99967.41;;;4.27;53.13
65534;BME280;53640;55.838;37.184;2023-04-06T05:36:22;99969.78;;;4.38;52.83
65534;BME280;53640;55.838;37.184;2023-04-06T05:44:26;99982.22;;;4.55;52.95
65534;BME280;53640;55.838;37.184;2023-04-06T05:52:38;99970.03;;;4.77;52.28
65534;BME280;53640;55.838;37.184;2023-04-06T05:56:19;99856.19;;;4.22;51.66
65534;BME280;53640;55.838;37.184;2023-04-06T05:59:48;99906.16;;;4.81;50.92
65534;BME280;53640;55.838;37.184;2023-04-06T06:05:46;99857.22;;;4.95;49.40
65534;BME280;53640;55.838;37.184;2023-04-06T06:08:55;99980.88;;;5.98;48.93
65534;BME280;53640;55.838;37.184;2023-04-06T06:11:27;99983.34;;;6.16;48.69
65534;BME280;53640;55.838;37.184;2023-04-06T06:13:59;99915.22;;;6.01;49.00
65534;BME280;53640;55.838;37.184;2023-04-06T06:16:26;99935.06;;;6.31;47.94
65534;BME280;53640;55.838;37.184;2023-04-06T06:18:57;99976.50;;;6.76;47.69
65534;BME280;53640;55.838;37.184;2023-04-06T06:21:24;99984.63;;;6.99;46.43
65534;BME280;53640;55.838;37.184;2023-04-06T06:23:52;99974.81;;;7.06;46.55
65534;BME280;53640;55.838;37.184;2023-04-06T06:26:23;99944.44;;;6.97;46.61
65534;BME280;53640;55.838;37.184;2023-04-06T06:28:50;99884.25;;;6.67;46.33
65534;BME280;53640;55.838;37.184;2023-04-06T06:31:17;99945.97;;;7.14;46.33
65534;BME280;53640;55.838;37.184;2023-04-06T06:33:46;99962.00;;;7.31;46.33
65534;BME280;53640;55.838;37.184;2023-04-06T06:36:18;99970.94;;;7.46;46.20
65534;BME280;53640;55.838;37.184;2023-04-06T06:38:45;99951.91;;;7.48;45.69
65534;BME280;53640;55.838;37.184;2023-04-06T06:41:15;99941.94;;;7.48;45.31
65534;BME280;53640;55.838;37.184;2023-04-06T06:43:42;99971.28;;;7.81;45.02
65534;BME280;53640;55.838;37.184;2023-04-06T06:46:11;99952.66;;;7.86;44.52
65534;BME280;53640;55.838;37.184;2023-04-06T06:48:41;99974.81;;;8.11;44.50
65534;BME280;53640;55.838;37.184;2023-04-06T06:51:07;99954.16;;;8.18;44.48
65534;BME280;53640;55.838;37.184;2023-04-06T06:53:36;99904.81;;;8.03;43.92
65534;BME280;53640;55.838;37.184;2023-04-06T06:56:04;99971.13;;;8.63;43.55
65534;BME280;53640;55.838;37.184;2023-04-06T06:58:31;99942.94;;;8.66;43.31
65534;BME280;53640;55.838;37.184;2023-04-06T07:01:00;99965.00;;;8.91;42.60
65534;BME280;53640;55.838;37.184;2023-04-06T07:03:29;99870.06;;;8.44;42.17
65534;BME280;53640;55.838;37.184;2023-04-06T07:05:56;99955.16;;;9.04;42.14
65534;BME280;53640;55.838;37.184;2023-04-06T07:08:39;99901.00;;;8.84;41.65
65534;BME280;53640;55.838;37.184;2023-04-06T07:11:27;99903.19;;;9.02;41.45
65534;BME280;53640;55.838;37.184;2023-04-06T07:18:28;99832.06;;;8.89;40.72
65534;BME280;53640;55.838;37.184;2023-04-06T07:22:19;99965.81;;;9.84;40.57
65534;BME280;53640;55.838;37.184;2023-04-06T07:25:45;99961.66;;;9.88;40.72
65534;BME280;53640;55.838;37.184;2023-04-06T07:29:44;99970.00;;;9.93;40.42
65534;BME280;53640;55.838;37.184;2023-04-06T07:56:08;99870.69;;;10.21;39.23
65534;BME280;53640;55.838;37.184;2023-04-06T07:58:37;99866.13;;;10.22;38.33
65534;BME280;53640;55.838;37.184;2023-04-06T08:01:06;99940.22;;;10.82;38.48
65534;BME280;53640;55.838;37.184;2023-04-06T08:03:37;99930.03;;;10.91;38.19
65534;BME280;53640;55.838;37.184;2023-04-06T08:06:04;99900.44;;;10.83;37.87
65534;BME280;53640;55.838;37.184;2023-04-06T08:08:31;99956.34;;;11.23;38.00
65534;BME280;53640;55.838;37.184;2023-04-06T08:11:10;99935.28;;;11.32;37.34
65534;BME280;53640;55.838;37.184;2023-04-06T08:13:37;99856.28;;;11.02;37.07
65534;BME280;53640;55.838;37.184;2023-04-06T08:16:03;99926.72;;;11.62;36.91
65534;BME280;53640;55.838;37.184;2023-04-06T08:18:30;99886.50;;;11.39;35.87
65534;BME280;53640;55.838;37.184;2023-04-06T08:20:56;99934.84;;;11.68;36.18
65534;BME280;53640;55.838;37.184;2023-04-06T08:23:27;99940.88;;;11.97;36.18
65534;BME280;53640;55.838;37.184;2023-04-06T08:25:55;99927.47;;;12.09;35.82
65534;BME280;53640;55.838;37.184;2023-04-06T08:28:22;99926.34;;;12.30;34.85
65534;BME280;53640;55.838;37.184;2023-04-06T08:30:48;99919.84;;;12.37;34.73
65534;BME280;53640;55.838;37.184;2023-04-06T08:33:16;99926.00;;;12.58;34.59
65534;BME280;53640;55.838;37.184;2023-04-06T08:35:44;99895.03;;;12.65;34.71
65534;BME280;53640;55.838;37.184;2023-04-06T08:38:10;99906.13;;;13.02;34.06
65534;BME280;53640;55.838;37.184;2023-04-06T08:40:37;99922.13;;;13.35;33.22
65534;BME280;53640;55.838;37.184;2023-04-06T08:43:14;99959.09;;;13.68;33.41
65534;BME280;53640;55.838;37.184;2023-04-06T08:45:44;99901.75;;;13.69;32.86
65534;BME280;53640;55.838;37.184;2023-04-06T08:48:23;99826.81;;;13.30;32.18
65534;BME280;53640;55.838;37.184;2023-04-06T08:51:00;99875.94;;;13.97;31.51
65534;BME280;53640;55.838;37.184;2023-04-06T08:53:30;99890.19;;;14.29;30.14
65534;BME280;53640;55.838;37.184;2023-04-06T08:56:04;99864.63;;;14.30;30.56
65534;BME280;53640;55.838;37.184;2023-04-06T08:58:37;99806.81;;;13.98;29.00
65534;BME280;53640;55.838;37.184;2023-04-06T09:01:08;99930.22;;;14.77;29.42
65534;BME280;53640;55.838;37.184;2023-04-06T09:03:43;99937.97;;;14.92;29.43
65534;BME280;53640;55.838;37.184;2023-04-06T09:06:11;99927.94;;;15.04;28.90
65534;BME280;53640;55.838;37.184;2023-04-06T09:08:40;99888.72;;;15.05;28.72
65534;BME280;53640;55.838;37.184;2023-04-06T09:14:41;99818.41;;;14.96;27.74
65534;BME280;53640;55.838;37.184;2023-04-06T09:17:32;99834.66;;;15.14;27.48
65534;BME280;53640;55.838;37.184;2023-04-06T09:20:06;99934.81;;;15.96;27.50
65534;BME280;53640;55.838;37.184;2023-04-06T09:22:39;99788.66;;;15.18;27.75
65534;BME280;53640;55.838;37.184;2023-04-06T09:25:34;99825.63;;;15.72;26.84
65534;BME280;53640;55.838;37.184;2023-04-06T09:28:25;99847.66;;;15.94;26.36
65534;BME280;53640;55.838;37.184;2023-04-06T09:31:05;99820.91;;;16.08;25.91
65534;BME280;53640;55.838;37.184;2023-04-06T09:33:32;99818.25;;;15.84;26.38
65534;BME280;53640;55.838;37.184;2023-04-06T09:36:04;99823.53;;;16.03;25.81
65534;BME280;53640;55.838;37.184;2023-04-06T09:38:50;99809.72;;;16.21;25.67
65534;BME280;53640;55.838;37.184;2023-04-06T09:41:30;99937.91;;;17.25;25.64
65534;BME280;53640;55.838;37.184;2023-04-06T09:44:25;99768.69;;;16.50;24.89
65534;BME280;53640;55.838;37.184;2023-04-06T09:46:55;99932.69;;;17.58;24.29
65534;BME280;53640;55.838;37.184;2023-04-06T09:49:30;99895.34;;;17.68;23.92
65534;BME280;53640;55.838;37.184;2023-04-06T09:52:03;99814.66;;;17.54;24.79
65534;BME280;53640;55.838;37.184;2023-04-06T09:54:36;99766.34;;;17.43;23.22
65534;BME280;53640;55.838;37.184;2023-04-06T09:57:36;99848.31;;;18.37;24.11
65534;BME280;53640;55.838;37.184;2023-04-06T10:00:06;99822.84;;;18.42;23.11
65534;BME280;53640;55.838;37.184;2023-04-06T10:05:46;99867.22;;;19.57;22.42
65534;BME280;53640;55.838;37.184;2023-04-06T10:08:16;99841.19;;;19.65;21.31
65534;BME280;53640;55.838;37.184;2023-04-06T10:10:43;99799.50;;;19.31;21.33
65534;BME280;53640;55.838;37.184;2023-04-06T10:13:16;99845.94;;;19.80;21.62
65534;BME280;53640;55.838;37.184;2023-04-06T10:15:44;99765.69;;;19.73;21.28
65534;BME280;53640;55.838;37.184;2023-04-06T10:18:11;99839.53;;;20.16;20.91
65534;BME280;53640;55.838;37.184;2023-04-06T10:20:51;99824.47;;;19.71;21.09
65534;BME280;53640;55.838;37.184;2023-04-06T10:26:02;99789.56;;;19.24;21.15
65534;BME280;53640;55.838;37.184;2023-04-06T10:28:34;99788.69;;;19.56;21.00
65534;BME280;53640;55.838;37.184;2023-04-06T10:31:05;99820.53;;;20.10;20.70
65534;BME280;53640;55.838;37.184;2023-04-06T10:33:59;99888.66;;;20.81;20.33
65534;BME280;53640;55.838;37.184;2023-04-06T10:36:32;99881.50;;;20.85;19.95
65534;BME280;53640;55.838;37.184;2023-04-06T10:39:00;99886.75;;;21.17;20.03
65534;BME280;53640;55.838;37.184;2023-04-06T10:41:42;99880.41;;;21.37;19.41
65534;BME280;53640;55.838;37.184;2023-04-06T10:44:25;99892.50;;;21.67;19.43
65534;BME280;53640;55.838;37.184;2023-04-06T10:46:59;99867.97;;;21.75;19.17
65534;BME280;53640;55.838;37.184;2023-04-06T10:49:28;99864.94;;;21.67;18.76
65534;BME280;53640;55.838;37.184;2023-04-06T10:51:55;99851.06;;;22.02;19.16
65534;BME280;53640;55.838;37.184;2023-04-06T10:54:26;99879.66;;;22.22;18.20
65534;BME280;53640;55.838;37.184;2023-04-06T10:56:54;99852.47;;;21.95;18.49
65534;BME280;53640;55.838;37.184;2023-04-06T10:59:22;99884.44;;;22.01;18.48
65534;BME280;53640;55.838;37.184;2023-04-06T11:01:52;99888.44;;;22.34;18.85
65534;BME280;53640;55.838;37.184;2023-04-06T11:04:22;99893.75;;;22.75;18.43
65534;BME280;53640;55.838;37.184;2023-04-06T11:06:49;99847.38;;;22.72;17.70
65534;BME280;53640;55.838;37.184;2023-04-06T11:09:29;99841.94;;;22.56;17.78
65534;BME280;53640;55.838;37.184;2023-04-06T11:11:57;99855.94;;;22.70;17.99
65534;BME280;53640;55.838;37.184;2023-04-06T11:14:25;99875.31;;;22.65;18.10
65534;BME280;53640;55.838;37.184;2023-04-06T11:16:54;99863.38;;;22.80;18.37
65534;BME280;53640;55.838;37.184;2023-04-06T11:19:21;99838.53;;;22.75;17.61
65534;BME280;53640;55.838;37.184;2023-04-06T11:21:48;99852.66;;;23.07;17.77
65534;BME280;53640;55.838;37.184;2023-04-06T11:24:18;99869.03;;;23.28;17.50
65534;BME280;53640;55.838;37.184;2023-04-06T11:27:10;99880.91;;;23.63;17.44
65534;BME280;53640;55.838;37.184;2023-04-06T11:29:43;99889.97;;;23.92;17.26
65534;BME280;53640;55.838;37.184;2023-04-06T11:32:20;99813.88;;;23.95;17.24
65534;BME280;53640;55.838;37.184;2023-04-06T11:34:50;99770.19;;;23.97;16.55
65534;BME280;53640;55.838;37.184;2023-04-06T11:37:17;99850.84;;;24.47;16.46
65534;BME280;53640;55.838;37.184;2023-04-06T11:39:49;99863.13;;;24.79;16.04
65534;BME280;53640;55.838;37.184;2023-04-06T11:42:29;99873.66;;;24.39;16.42
65534;BME280;53640;55.838;37.184;2023-04-06T11:44:58;99860.97;;;24.14;16.79
65534;BME280;53640;55.838;37.184;2023-04-06T11:47:35;99849.25;;;24.22;16.23
65534;BME280;53640;55.838;37.184;2023-04-06T11:50:25;99851.28;;;24.35;16.09
65534;BME280;53640;55.838;37.184;2023-04-06T11:52:58;99791.66;;;24.05;16.00
65534;BME280;53640;55.838;37.184;2023-04-06T11:55:29;99866.03;;;24.07;16.39
65534;BME280;53640;55.838;37.184;2023-04-06T11:57:55;99842.84;;;23.78;16.05
65534;BME280;53640;55.838;37.184;2023-04-06T12:00:22;99861.22;;;23.93;16.75
65534;BME280;53640;55.838;37.184;2023-04-06T12:02:50;99845.19;;;23.90;16.60
65534;BME280;53640;55.838;37.184;2023-04-06T12:05:17;99852.91;;;23.93;16.25
65534;BME280;53640;55.838;37.184;2023-04-06T12:07:43;99827.03;;;24.08;16.53
65534;BME280;53640;55.838;37.184;2023-04-06T12:10:10;99860.09;;;24.61;16.23
65534;BME280;53640;55.838;37.184;2023-04-06T12:12:37;99840.13;;;24.40;15.69
65534;BME280;53640;55.838;37.184;2023-04-06T12:15:03;99849.47;;;24.25;15.99
65534;BME280;53640;55.838;37.184;2023-04-06T12:17:31;99848.41;;;24.02;16.00
65534;BME280;53640;55.838;37.184;2023-04-06T12:19:57;99807.44;;;23.80;16.68
65534;BME280;53640;55.838;37.184;2023-04-06T12:22:24;99854.56;;;24.37;16.50
65534;BME280;53640;55.838;37.184;2023-04-06T12:24:50;99818.38;;;24.34;16.17
65534;BME280;53640;55.838;37.184;2023-04-06T12:27:17;99807.69;;;24.46;16.22
65534;BME280;53640;55.838;37.184;2023-04-06T12:29:43;99864.44;;;25.00;15.98
65534;BME280;53640;55.838;37.184;2023-04-06T12:32:09;99837.28;;;25.02;15.77
65534;BME280;53640;55.838;37.184;2023-04-06T12:34:37;99853.56;;;25.22;15.62
65534;BME280;53640;55.838;37.184;2023-04-06T12:37:06;99808.44;;;25.03;15.50
65534;BME280;53640;55.838;37.184;2023-04-06T12:39:33;99832.97;;;25.29;15.48
65534;BME280;53640;55.838;37.184;2023-04-06T12:42:00;99827.53;;;25.37;15.33
65534;BME280;53640;55.838;37.184;2023-04-06T12:44:28;99837.19;;;25.40;15.54
65534;BME280;53640;55.838;37.184;2023-04-06T12:46:55;99812.97;;;25.32;15.60
65534;BME280;53640;55.838;37.184;2023-04-06T12:49:23;99797.56;;;25.26;15.42
65534;BME280;53640;55.838;37.184;2023-04-06T12:51:51;99835.78;;;25.56;15.72
65534;BME280;53640;55.838;37.184;2023-04-06T12:54:17;99841.25;;;25.75;15.55
65534;BME280;53640;55.838;37.184;2023-04-06T12:56:44;99793.97;;;25.39;15.44
65534;BME280;53640;55.838;37.184;2023-04-06T12:59:11;99782.38;;;25.37;15.21
65534;BME280;53640;55.838;37.184;2023-04-06T13:01:40;99822.91;;;25.46;15.54
65534;BME280;53640;55.838;37.184;2023-04-06T13:04:10;99848.09;;;25.64;15.30
65534;BME280;53640;55.838;37.184;2023-04-06T13:06:37;99800.22;;;25.31;15.57
65534;BME280;53640;55.838;37.184;2023-04-06T13:09:03;99848.72;;;25.61;15.21
65534;BME280;53640;55.838;37.184;2023-04-06T13:11:32;99821.31;;;25.59;15.37
65534;BME280;53640;55.838;37.184;2023-04-06T13:13:59;99845.84;;;25.66;15.19
65534;BME280;53640;55.838;37.184;2023-04-06T13:16:26;99851.09;;;25.67;15.16
65534;BME280;53640;55.838;37.184;2023-04-06T13:18:52;99802.91;;;25.49;15.27
65534;BME280;53640;55.838;37.184;2023-04-06T13:21:18;99834.97;;;25.83;15.19
65534;BME280;53640;55.838;37.184;2023-04-06T13:23:50;99844.44;;;25.96;15.22
65534;BME280;53640;55.838;37.184;2023-04-06T13:26:16;99777.44;;;25.61;15.16
65534;BME280;53640;55.838;37.184;2023-04-06T13:28:44;99761.84;;;25.52;14.76
65534;BME280;53640;55.838;37.184;2023-04-06T13:31:12;99818.88;;;25.85;15.24
65534;BME280;53640;55.838;37.184;2023-04-06T13:33:38;99797.78;;;25.70;14.70
65534;BME280;53640;55.838;37.184;2023-04-06T13:36:07;99795.13;;;25.52;15.16
65534;BME280;53640;55.838;37.184;2023-04-06T13:38:34;99807.34;;;25.51;15.33
65534;BME280;53640;55.838;37.184;2023-04-06T13:41:00;99824.47;;;25.53;14.88
65534;BME280;53640;55.838;37.184;2023-04-06T13:43:27;99809.44;;;25.26;15.17
65534;BME280;53640;55.838;37.184;2023-04-06T13:45:55;99829.09;;;25.11;15.43
65534;BME280;53640;55.838;37.184;2023-04-06T13:48:22;99801.69;;;24.76;15.39
65534;BME280;53640;55.838;37.184;2023-04-06T13:50:48;99811.28;;;24.46;16.01
65534;BME280;53640;55.838;37.184;2023-04-06T13:53:15;99821.56;;;23.79;16.51
65534;BME280;53640;55.838;37.184;2023-04-06T13:55:43;99804.00;;;23.12;16.88
65534;BME280;53640;55.838;37.184;2023-04-06T13:58:10;99778.91;;;22.40;17.21
65534;BME280;53640;55.838;37.184;2023-04-06T14:00:36;99815.50;;;22.01;17.57
65534;BME280;53640;55.838;37.184;2023-04-06T14:03:03;99838.53;;;21.60;17.69
65534;BME280;53640;55.838;37.184;2023-04-06T14:05:33;99817.09;;;21.01;18.72
65534;BME280;53640;55.838;37.184;2023-04-06T14:08:00;99812.91;;;20.48;18.62
65534;BME280;53640;55.838;37.184;2023-04-06T14:10:28;99754.69;;;19.67;19.08
65534;BME280;53640;55.838;37.184;2023-04-06T14:12:54;99818.94;;;19.66;19.56
65534;BME280;53640;55.838;37.184;2023-04-06T14:15:24;99735.50;;;18.83;19.85
65534;BME280;53640;55.838;37.184;2023-04-06T14:17:55;99688.84;;;18.13;20.13
65534;BME280;53640;55.838;37.184;2023-04-06T14:20:25;99709.38;;;17.89;19.76
65534;BME280;53640;55.838;37.184;2023-04-06T14:22:51;99669.13;;;17.40;20.27
65534;BME280;53640;55.838;37.184;2023-04-06T14:25:24;99723.63;;;17.42;20.81
65534;BME280;53640;55.838;37.184;2023-04-06T14:27:50;99760.72;;;17.33;20.58
65534;BME280;53640;55.838;37.184;2023-04-06T14:30:17;99766.38;;;17.09;20.94
65534;BME280;53640;55.838;37.184;2023-04-06T14:32:44;99781.41;;;16.90;20.59
65534;BME280;53640;55.838;37.184;2023-04-06T14:35:13;99741.72;;;16.37;20.88
65534;BME280;53640;55.838;37.184;2023-04-06T14:37:40;99770.72;;;16.26;21.30
65534;BME280;53640;55.838;37.184;2023-04-06T14:40:07;99785.59;;;16.18;21.47
65534;BME280;53640;55.838;37.184;2023-04-06T14:42:35;99700.50;;;15.41;21.31
65534;BME280;53640;55.838;37.184;2023-04-06T14:45:03;99796.28;;;15.79;21.82
65534;BME280;53640;55.838;37.184;2023-04-06T14:47:32;99710.66;;;15.17;21.56
65534;BME280;53640;55.838;37.184;2023-04-06T14:49:59;99744.56;;;15.21;21.72
65534;BME280;53640;55.838;37.184;2023-04-06T14:52:26;99697.75;;;14.77;21.87
65534;BME280;53640;55.838;37.184;2023-04-06T14:54:53;99774.78;;;15.07;21.81
65534;BME280;53640;55.838;37.184;2023-04-06T14:57:19;99773.13;;;15.06;21.86